createdAt,value
2019-06-01T00:00:20.182Z,90.03
2019-06-01T00:01:20.112Z,90.12
2019-06-01T00:02:20.085Z,90.12
2019-06-01T00:03:20.035Z,89.93
2019-06-01T00:04:20.004Z,90.12
2019-06-01T00:05:19.987Z,90.22
2019-06-01T00:06:19.913Z,90.12
2019-06-01T00:07:19.879Z,90.12
2019-06-01T00:08:19.845Z,90.59
2019-06-01T00:09:19.805Z,90.41
2019-06-01T00:10:19.768Z,89.83
2019-06-01T00:11:19.747Z,90.22
2019-06-01T00:12:19.692Z,90.50
2019-06-01T00:13:19.659Z,90.12
2019-06-01T00:14:19.615Z,90.12
2019-06-01T00:15:19.577Z,90.50
2019-06-01T00:16:19.560Z,90.12
2019-06-01T00:17:19.506Z,90.03
2019-06-01T00:18:19.472Z,90.41
2019-06-01T00:19:19.443Z,90.98
2019-06-01T00:20:19.401Z,90.88
2019-06-01T00:21:19.363Z,90.98
2019-06-01T00:22:19.328Z,89.93
2019-06-01T00:23:19.286Z,90.98
2019-06-01T00:24:19.254Z,91.07
2019-06-01T00:25:19.227Z,90.98
2019-06-01T00:26:19.231Z,90.41
2019-06-01T00:27:19.251Z,90.59
2019-06-01T00:28:19.131Z,90.69
2019-06-01T00:29:19.101Z,90.88
2019-06-01T00:30:26.887Z,91.13
2019-06-01T00:31:19.040Z,91.50
2019-06-01T00:32:18.988Z,91.03
2019-06-01T00:33:18.962Z,91.41
2019-06-01T00:34:18.906Z,91.41
2019-06-01T00:35:18.863Z,91.17
2019-06-01T00:36:18.822Z,90.79
2019-06-01T00:37:18.812Z,91.07
2019-06-01T00:38:18.788Z,91.55
2019-06-01T00:39:18.722Z,91.17
2019-06-01T00:40:18.670Z,91.55
2019-06-01T00:41:18.633Z,90.98
2019-06-01T00:42:18.601Z,90.98
2019-06-01T00:43:18.600Z,90.93
2019-06-01T00:44:18.513Z,91.41
2019-06-01T00:45:18.505Z,91.41
2019-06-01T00:46:18.439Z,91.03
2019-06-01T00:47:18.405Z,91.69
2019-06-01T00:48:18.372Z,91.79
2019-06-01T00:49:18.332Z,91.41
2019-06-01T00:50:18.306Z,91.13
2019-06-01T00:51:18.302Z,91.41
2019-06-01T00:52:18.233Z,91.46
2019-06-01T00:53:18.187Z,91.27
2019-06-01T00:54:18.147Z,91.22
2019-06-01T00:55:18.113Z,91.69
2019-06-01T00:56:18.088Z,91.50
2019-06-01T00:57:18.070Z,91.50
2019-06-01T00:58:18.027Z,91.60
2019-06-01T00:59:18.009Z,91.69
2019-06-01T01:00:17.943Z,91.69
2019-06-01T01:01:17.891Z,91.69
2019-06-01T01:02:17.882Z,91.69
2019-06-01T01:03:17.817Z,91.41
2019-06-01T01:04:17.767Z,91.69
2019-06-01T01:05:17.759Z,91.88
2019-06-01T01:06:17.711Z,91.79
2019-06-01T01:07:17.664Z,91.79
2019-06-01T01:08:17.676Z,91.22
2019-06-01T01:09:17.614Z,91.79
2019-06-01T01:10:17.562Z,91.79
2019-06-01T01:11:17.509Z,91.79
2019-06-01T01:12:17.481Z,91.79
2019-06-01T01:13:17.439Z,91.79
2019-06-01T01:14:17.407Z,91.60
2019-06-01T01:15:17.402Z,91.79
2019-06-01T01:16:17.337Z,91.88
2019-06-01T01:17:17.305Z,91.69
2019-06-01T01:18:17.256Z,91.60
2019-06-01T01:19:17.215Z,92.17
2019-06-01T01:20:17.190Z,91.98
2019-06-01T01:21:17.140Z,91.98
2019-06-01T01:22:17.103Z,92.17
2019-06-01T01:23:17.079Z,92.17
2019-06-01T01:24:17.044Z,92.27
2019-06-01T01:25:16.996Z,92.27
2019-06-01T01:26:16.956Z,92.17
2019-06-01T01:27:16.979Z,92.08
2019-06-01T01:28:16.898Z,91.98
2019-06-01T01:29:16.870Z,92.27
2019-06-01T01:30:16.810Z,91.98
2019-06-01T01:31:16.817Z,92.27
2019-06-01T01:32:16.755Z,91.88
2019-06-01T01:33:16.718Z,92.74
2019-06-01T01:34:16.707Z,92.50
2019-06-01T01:35:16.635Z,92.50
2019-06-01T01:36:16.615Z,92.79
2019-06-01T01:37:16.558Z,92.32
2019-06-01T01:38:16.516Z,92.60
2019-06-01T01:39:16.507Z,92.46
2019-06-01T01:40:16.457Z,92.69
2019-06-01T01:41:16.412Z,92.60
2019-06-01T01:42:16.366Z,92.89
2019-06-01T01:43:16.329Z,92.98
2019-06-01T01:44:16.296Z,92.98
2019-06-01T01:45:16.249Z,92.98
2019-06-01T01:46:16.210Z,93.65
2019-06-01T01:47:16.177Z,93.17
2019-06-01T01:48:16.140Z,92.79
2019-06-01T01:49:16.098Z,92.69
2019-06-01T01:50:16.063Z,92.79
2019-06-01T01:51:16.027Z,92.69
2019-06-01T01:52:16.005Z,92.79
2019-06-01T01:53:15.953Z,92.89
2019-06-01T01:54:15.916Z,92.98
2019-06-01T01:55:15.874Z,93.03
2019-06-01T01:56:15.838Z,92.84
2019-06-01T01:57:15.803Z,93.17
2019-06-01T01:58:15.782Z,93.55
2019-06-01T01:59:15.780Z,93.55
2019-06-01T02:00:15.705Z,93.65
2019-06-01T02:01:22.268Z,93.55
2019-06-01T02:02:15.679Z,93.65
2019-06-01T02:03:15.607Z,93.37
2019-06-01T02:04:15.568Z,93.55
2019-06-01T02:05:15.534Z,93.46
2019-06-01T02:06:15.496Z,93.65
2019-06-01T02:07:15.442Z,94.03
2019-06-01T02:08:15.401Z,93.93
2019-06-01T02:09:15.394Z,93.37
2019-06-01T02:10:15.352Z,93.46
2019-06-01T02:11:15.286Z,93.55
2019-06-01T02:12:15.254Z,94.03
2019-06-01T02:13:15.232Z,93.46
2019-06-01T02:14:15.168Z,94.03
2019-06-01T02:15:15.131Z,93.84
2019-06-01T02:16:15.098Z,93.65
2019-06-01T02:17:15.061Z,93.74
2019-06-01T02:18:15.020Z,93.84
2019-06-01T02:19:14.980Z,93.84
2019-06-01T02:20:14.951Z,94.22
2019-06-01T02:21:14.908Z,94.60
2019-06-01T02:22:14.867Z,94.22
2019-06-01T02:23:14.829Z,94.32
2019-06-01T02:24:14.794Z,94.03
2019-06-01T02:25:14.758Z,94.51
2019-06-01T02:26:14.717Z,94.13
2019-06-01T02:27:14.687Z,94.32
2019-06-01T02:28:14.644Z,94.41
2019-06-01T02:29:14.623Z,93.93
2019-06-01T02:30:14.609Z,94.32
2019-06-01T02:31:14.543Z,94.03
2019-06-01T02:32:14.536Z,94.22
2019-06-01T02:33:14.481Z,93.84
2019-06-01T02:34:14.437Z,93.65
2019-06-01T02:35:14.385Z,94.13
2019-06-01T02:36:14.359Z,94.41
2019-06-01T02:37:14.318Z,94.13
2019-06-01T02:38:14.292Z,94.13
2019-06-01T02:39:14.291Z,93.93
2019-06-01T02:40:14.213Z,93.84
2019-06-01T02:41:14.225Z,93.93
2019-06-01T02:42:14.191Z,94.22
2019-06-01T02:43:14.109Z,94.70
2019-06-01T02:44:14.092Z,94.60
2019-06-01T02:45:14.012Z,94.89
2019-06-01T02:46:13.974Z,94.70
2019-06-01T02:47:13.934Z,94.70
2019-06-01T02:48:13.892Z,94.70
2019-06-01T02:49:13.860Z,94.70
2019-06-01T02:50:13.823Z,94.51
2019-06-01T02:51:13.777Z,94.03
2019-06-01T02:52:13.741Z,94.70
2019-06-01T02:53:13.699Z,94.03
2019-06-01T02:54:13.666Z,93.74
2019-06-01T02:55:13.632Z,94.13
2019-06-01T02:56:13.598Z,94.13
2019-06-01T02:57:13.551Z,94.13
2019-06-01T02:58:13.512Z,94.13
2019-06-01T02:59:13.480Z,93.84
2019-06-01T03:00:13.459Z,94.03
2019-06-01T03:01:13.411Z,94.13
2019-06-01T03:02:15.028Z,93.93
2019-06-01T03:03:13.367Z,94.13
2019-06-01T03:04:13.302Z,93.84
2019-06-01T03:05:13.291Z,94.13
2019-06-01T03:06:13.237Z,93.84
2019-06-01T03:07:13.199Z,94.41
2019-06-01T03:08:13.170Z,93.84
2019-06-01T03:09:13.129Z,93.84
2019-06-01T03:10:13.085Z,93.79
2019-06-01T03:11:13.065Z,94.03
2019-06-01T03:12:13.003Z,93.74
2019-06-01T03:13:13.005Z,94.22
2019-06-01T03:14:12.919Z,94.13
2019-06-01T03:15:12.932Z,94.03
2019-06-01T03:16:12.839Z,93.93
2019-06-01T03:17:12.827Z,93.74
2019-06-01T03:18:12.770Z,93.84
2019-06-01T03:19:12.730Z,93.84
2019-06-01T03:20:12.686Z,93.84
2019-06-01T03:21:12.658Z,94.03
2019-06-01T03:22:12.623Z,94.13
2019-06-01T03:23:12.584Z,93.79
2019-06-01T03:24:13.270Z,93.70
2019-06-01T03:25:12.506Z,93.70
2019-06-01T03:26:12.565Z,93.70
2019-06-01T03:27:12.506Z,93.79
2019-06-01T03:28:12.452Z,94.17
2019-06-01T03:29:12.642Z,93.88
2019-06-01T03:30:15.279Z,93.70
2019-06-01T03:31:13.339Z,93.70
2019-06-01T03:32:29.762Z,93.51
2019-06-01T03:33:14.251Z,93.70
2019-06-01T03:34:13.887Z,93.70
2019-06-01T03:35:13.115Z,93.70
2019-06-01T03:36:13.142Z,93.60
2019-06-01T03:37:13.298Z,93.51
2019-06-01T03:38:12.039Z,93.51
2019-06-01T03:39:13.063Z,93.51
2019-06-01T03:40:23.039Z,93.51
2019-06-01T03:41:12.372Z,93.70
2019-06-01T03:42:11.937Z,94.08
2019-06-01T03:43:11.853Z,94.17
2019-06-01T03:44:12.954Z,93.70
2019-06-01T03:45:12.559Z,94.08
2019-06-01T03:46:12.981Z,93.03
2019-06-01T03:47:12.012Z,92.74
2019-06-01T03:48:12.953Z,92.65
2019-06-01T03:49:12.009Z,92.84
2019-06-01T03:50:11.587Z,92.93
2019-06-01T03:51:11.962Z,92.74
2019-06-01T03:52:11.541Z,92.74
2019-06-01T03:53:12.181Z,93.03
2019-06-01T03:54:11.454Z,92.55
2019-06-01T03:55:11.999Z,92.65
2019-06-01T03:56:11.376Z,92.74
2019-06-01T03:57:11.342Z,92.50
2019-06-01T03:58:11.294Z,92.50
2019-06-01T03:59:11.332Z,92.22
2019-06-01T04:00:12.038Z,92.32
2019-06-01T04:01:11.273Z,92.60
2019-06-01T04:02:11.207Z,92.41
2019-06-01T04:03:11.214Z,92.12
2019-06-01T04:04:11.336Z,91.78
2019-06-01T04:05:11.440Z,90.88
2019-06-01T04:06:11.425Z,90.21
2019-06-01T04:07:10.994Z,90.54
2019-06-01T04:08:11.731Z,89.53
2019-06-01T04:09:11.855Z,88.96
2019-06-01T04:10:11.843Z,89.39
2019-06-01T04:11:11.729Z,89.05
2019-06-01T04:12:11.997Z,89.81
2019-06-01T04:13:11.898Z,89.48
2019-06-01T04:14:11.810Z,91.11
2019-06-01T04:15:14.878Z,95.03
2019-06-01T04:16:10.631Z,96.80
2019-06-01T04:17:10.621Z,99.99
2019-06-01T04:18:10.544Z,99.99
2019-06-01T04:19:10.522Z,99.99
2019-06-01T04:20:10.489Z,99.99
2019-06-01T04:21:10.449Z,99.99
2019-06-01T04:22:10.426Z,99.99
2019-06-01T04:23:10.370Z,99.99
2019-06-01T04:24:10.371Z,99.99
2019-06-01T04:25:10.360Z,99.99
2019-06-01T04:26:10.404Z,99.99
2019-06-01T04:27:10.309Z,99.99
2019-06-01T04:28:10.296Z,99.99
2019-06-01T04:29:10.409Z,99.99
2019-06-01T04:30:11.411Z,99.99
2019-06-01T04:31:10.870Z,99.99
2019-06-01T04:32:10.702Z,99.99
2019-06-01T04:33:11.037Z,99.99
2019-06-01T04:34:10.989Z,99.99
2019-06-01T04:35:11.100Z,99.99
2019-06-01T04:36:10.971Z,99.99
2019-06-01T04:37:11.209Z,99.99
2019-06-01T04:38:09.868Z,99.99
2019-06-01T04:39:09.853Z,99.99
2019-06-01T04:40:09.854Z,99.99
2019-06-01T04:41:09.856Z,99.99
2019-06-01T04:42:09.829Z,99.99
2019-06-01T04:43:10.160Z,99.99
2019-06-01T04:44:10.056Z,99.99
2019-06-01T04:45:10.877Z,99.99
2019-06-01T04:46:10.317Z,99.99
2019-06-01T04:47:10.725Z,99.99
2019-06-01T04:48:10.585Z,99.99
2019-06-01T04:49:10.628Z,99.99
2019-06-01T04:50:10.889Z,99.99
2019-06-01T04:51:11.393Z,99.99
2019-06-01T04:52:09.425Z,99.99
2019-06-01T04:53:09.426Z,99.99
2019-06-01T04:54:09.362Z,99.99
2019-06-01T04:55:09.321Z,99.99
2019-06-01T04:56:09.290Z,99.99
2019-06-01T04:57:09.266Z,99.99
2019-06-01T04:58:09.228Z,99.99
2019-06-01T04:59:09.215Z,99.99
2019-06-01T05:00:22.591Z,99.99
2019-06-01T05:01:09.142Z,99.99
2019-06-01T05:02:09.386Z,99.99
2019-06-01T05:03:10.313Z,99.99
2019-06-01T05:04:09.139Z,99.99
2019-06-01T05:05:09.402Z,99.99
2019-06-01T05:06:09.293Z,99.99
2019-06-01T05:07:09.273Z,99.99
2019-06-01T05:08:09.400Z,99.99
2019-06-01T05:09:09.286Z,99.99
2019-06-01T05:10:09.409Z,99.99
2019-06-01T05:11:10.173Z,99.99
2019-06-01T05:12:09.332Z,99.99
2019-06-01T05:13:09.371Z,99.99
2019-06-01T05:14:09.731Z,99.99
2019-06-01T05:15:09.931Z,99.99
2019-06-01T05:16:09.942Z,99.99
2019-06-01T05:17:10.027Z,99.99
2019-06-01T05:18:09.970Z,99.99
2019-06-01T05:19:08.638Z,99.99
2019-06-01T05:20:08.610Z,99.99
2019-06-01T05:21:08.611Z,99.99
2019-06-01T05:22:08.559Z,99.99
2019-06-01T05:23:08.632Z,98.00
2019-06-01T05:24:08.813Z,97.62
2019-06-01T05:25:08.974Z,96.80
2019-06-01T05:26:08.739Z,95.64
2019-06-01T05:27:09.004Z,95.59
2019-06-01T05:28:09.110Z,95.34
2019-06-01T05:29:09.397Z,96.46
2019-06-01T05:30:09.508Z,98.44
2019-06-01T05:31:09.629Z,99.21
2019-06-01T05:32:08.401Z,99.99
2019-06-01T05:33:22.418Z,99.99
2019-06-01T05:34:08.258Z,99.99
2019-06-01T05:35:08.202Z,99.99
2019-06-01T05:36:08.163Z,99.99
2019-06-01T05:37:08.526Z,99.99
2019-06-01T05:38:08.203Z,99.99
2019-06-01T05:39:08.296Z,99.99
2019-06-01T05:40:08.414Z,99.99
2019-06-01T05:41:09.923Z,99.99
2019-06-01T05:42:08.877Z,99.99
2019-06-01T05:43:12.434Z,99.99
2019-06-01T05:44:08.837Z,99.99
2019-06-01T05:45:09.155Z,99.99
2019-06-01T05:46:07.963Z,99.99
2019-06-01T05:47:07.880Z,99.99
2019-06-01T05:48:07.852Z,99.99
2019-06-01T05:49:07.883Z,99.99
2019-06-01T05:50:07.846Z,99.99
2019-06-01T05:51:07.757Z,99.99
2019-06-01T05:52:07.742Z,99.99
2019-06-01T05:53:07.688Z,99.99
2019-06-01T05:54:07.714Z,99.99
2019-06-01T05:55:07.666Z,99.99
2019-06-01T05:56:07.622Z,99.99
2019-06-01T05:57:07.592Z,99.99
2019-06-01T05:58:07.561Z,99.99
2019-06-01T05:59:07.533Z,99.99
2019-06-01T06:00:07.503Z,99.99
2019-06-01T06:01:07.489Z,99.99
2019-06-01T06:02:07.439Z,99.99
2019-06-01T06:03:07.421Z,99.99
2019-06-01T06:04:07.393Z,99.99
2019-06-01T06:05:07.359Z,99.99
2019-06-01T06:06:07.331Z,99.99
2019-06-01T06:07:07.303Z,99.99
2019-06-01T06:08:07.282Z,99.99
2019-06-01T06:09:07.273Z,99.99
2019-06-01T06:10:07.218Z,99.99
2019-06-01T06:11:07.208Z,99.99
2019-06-01T06:12:07.163Z,99.99
2019-06-01T06:13:07.122Z,99.99
2019-06-01T06:14:07.122Z,99.99
2019-06-01T06:15:07.118Z,99.99
2019-06-01T06:16:09.643Z,99.99
2019-06-01T06:17:07.011Z,99.99
2019-06-01T06:18:07.020Z,99.99
2019-06-01T06:19:06.957Z,99.99
2019-06-01T06:20:06.942Z,99.99
2019-06-01T06:21:06.915Z,99.99
2019-06-01T06:22:06.869Z,99.99
2019-06-01T06:23:06.833Z,99.99
2019-06-01T06:24:06.796Z,99.99
2019-06-01T06:25:06.793Z,99.99
2019-06-01T06:26:06.754Z,99.99
2019-06-01T06:27:06.728Z,99.99
2019-06-01T06:28:09.507Z,99.99
2019-06-01T06:29:06.694Z,99.99
2019-06-01T06:30:06.636Z,99.99
2019-06-01T06:31:06.619Z,99.99
2019-06-01T06:32:09.176Z,99.99
2019-06-01T06:33:06.532Z,99.99
2019-06-01T06:34:06.514Z,99.99
2019-06-01T06:35:06.495Z,99.99
2019-06-01T06:36:06.467Z,99.99
2019-06-01T06:37:06.431Z,99.99
2019-06-01T06:38:06.390Z,99.99
2019-06-01T06:39:06.374Z,99.99
2019-06-01T06:40:06.361Z,99.99
2019-06-01T06:41:06.307Z,99.99
2019-06-01T06:42:06.288Z,99.99
2019-06-01T06:43:18.720Z,99.99
2019-06-01T06:44:06.220Z,99.99
2019-06-01T06:45:06.202Z,99.99
2019-06-01T06:46:06.179Z,99.99
2019-06-01T06:47:06.153Z,99.99
2019-06-01T06:48:06.123Z,99.99
2019-06-01T06:49:09.278Z,99.99
2019-06-01T06:50:06.072Z,99.99
2019-06-01T06:51:06.069Z,99.99
2019-06-01T06:52:05.978Z,99.99
2019-06-01T06:53:05.935Z,99.99
2019-06-01T06:54:05.920Z,99.99
2019-06-01T06:55:05.876Z,99.99
2019-06-01T06:56:05.855Z,97.03
2019-06-01T06:57:05.828Z,92.86
2019-06-01T06:58:05.788Z,91.07
2019-06-01T06:59:05.773Z,88.44
2019-06-01T07:00:05.737Z,85.38
2019-06-01T07:01:05.718Z,83.00
2019-06-01T07:02:05.686Z,85.18
2019-06-01T07:03:05.662Z,85.42
2019-06-01T07:04:12.577Z,81.10
2019-06-01T07:05:05.613Z,78.61
2019-06-01T07:06:05.582Z,78.50
2019-06-01T07:07:05.556Z,75.60
2019-06-01T07:08:05.532Z,74.92
2019-06-01T07:09:05.521Z,76.42
2019-06-01T07:10:05.519Z,76.07
2019-06-01T07:11:05.461Z,74.45
2019-06-01T07:12:05.450Z,72.83
2019-06-01T07:13:05.423Z,73.16
2019-06-01T07:14:05.402Z,71.14
2019-06-01T07:15:05.387Z,72.64
2019-06-01T07:16:05.358Z,72.38
2019-06-01T07:17:05.331Z,70.86
2019-06-01T07:18:05.293Z,66.99
2019-06-01T07:19:05.351Z,68.42
2019-06-01T07:20:05.319Z,68.29
2019-06-01T07:21:05.228Z,71.82
2019-06-01T07:22:05.232Z,68.19
2019-06-01T07:23:05.181Z,71.11
2019-06-01T07:24:05.156Z,70.20
2019-06-01T07:25:05.135Z,68.58
2019-06-01T07:26:05.144Z,66.93
2019-06-01T07:27:05.097Z,72.31
2019-06-01T07:28:05.080Z,65.88
2019-06-01T07:29:05.065Z,65.95
2019-06-01T07:30:05.044Z,68.15
2019-06-01T07:31:05.028Z,67.76
2019-06-01T07:32:04.998Z,70.91
2019-06-01T07:33:04.973Z,68.55
2019-06-01T07:34:04.948Z,66.47
2019-06-01T07:35:04.930Z,65.43
2019-06-01T07:36:04.914Z,66.44
2019-06-01T07:37:04.897Z,66.56
2019-06-01T07:38:04.874Z,69.32
2019-06-01T07:39:04.855Z,65.14
2019-06-01T07:40:04.882Z,63.64
2019-06-01T07:41:04.852Z,63.84
2019-06-01T07:42:04.828Z,66.37
2019-06-01T07:43:04.786Z,63.97
2019-06-01T07:44:04.784Z,64.84
2019-06-01T07:45:04.759Z,65.56
2019-06-01T07:46:04.744Z,64.32
2019-06-01T07:47:04.700Z,62.44
2019-06-01T07:48:04.686Z,63.12
2019-06-01T07:49:04.686Z,61.60
2019-06-01T07:50:04.670Z,64.87
2019-06-01T07:51:04.665Z,64.16
2019-06-01T07:52:12.986Z,60.91
2019-06-01T07:53:04.603Z,61.82
2019-06-01T07:54:04.569Z,60.98
2019-06-01T07:55:04.538Z,65.69
2019-06-01T07:56:04.519Z,60.94
2019-06-01T07:57:04.503Z,60.42
2019-06-01T07:58:04.494Z,61.60
2019-06-01T07:59:04.473Z,62.60
2019-06-01T08:00:04.442Z,62.93
2019-06-01T08:01:04.410Z,63.90
2019-06-01T08:02:04.415Z,61.41
2019-06-01T08:03:04.386Z,63.55
2019-06-01T08:04:04.365Z,63.58
2019-06-01T08:05:04.347Z,61.66
2019-06-01T08:06:04.336Z,62.83
2019-06-01T08:07:04.332Z,61.08
2019-06-01T08:08:04.280Z,62.83
2019-06-01T08:09:04.276Z,61.66
2019-06-01T08:10:04.250Z,62.25
2019-06-01T08:11:04.266Z,61.96
2019-06-01T08:12:04.232Z,63.84
2019-06-01T08:13:04.203Z,62.86
2019-06-01T08:14:04.174Z,61.47
2019-06-01T08:15:04.177Z,61.83
2019-06-01T08:16:04.140Z,63.78
2019-06-01T08:17:04.139Z,63.58
2019-06-01T08:18:04.113Z,63.32
2019-06-01T08:19:04.077Z,63.22
2019-06-01T08:20:04.079Z,62.02
2019-06-01T08:21:04.052Z,63.97
2019-06-01T08:22:04.035Z,64.20
2019-06-01T08:23:04.007Z,64.42
2019-06-01T08:24:04.017Z,63.29
2019-06-01T08:25:03.971Z,62.84
2019-06-01T08:26:03.933Z,66.37
2019-06-01T08:27:03.918Z,68.57
2019-06-01T08:28:03.908Z,70.67
2019-06-01T08:29:03.887Z,72.77
2019-06-01T08:30:03.909Z,73.69
2019-06-01T08:31:03.860Z,73.66
2019-06-01T08:32:03.823Z,74.66
2019-06-01T08:33:03.799Z,74.22
2019-06-01T08:34:03.798Z,77.04
2019-06-01T08:35:09.169Z,70.51
2019-06-01T08:36:03.754Z,68.51
2019-06-01T08:37:03.706Z,67.57
2019-06-01T08:38:03.694Z,66.37
2019-06-01T08:39:03.667Z,65.20
2019-06-01T08:40:03.688Z,65.53
2019-06-01T08:41:03.645Z,64.07
2019-06-01T08:42:03.599Z,65.04
2019-06-01T08:43:03.599Z,63.74
2019-06-01T08:44:03.565Z,62.08
2019-06-01T08:45:03.621Z,60.06
2019-06-01T08:46:03.545Z,61.15
2019-06-01T08:47:03.507Z,65.20
2019-06-01T08:48:03.549Z,63.39
2019-06-01T08:49:03.483Z,62.28
2019-06-01T08:50:03.459Z,61.33
2019-06-01T08:51:03.431Z,61.33
2019-06-01T08:52:03.415Z,61.82
2019-06-01T08:53:03.387Z,59.74
2019-06-01T08:54:03.387Z,61.83
2019-06-01T08:55:03.383Z,63.62
2019-06-01T08:56:03.320Z,63.49
2019-06-01T08:57:03.322Z,65.08
2019-06-01T08:58:03.270Z,66.08
2019-06-01T08:59:03.246Z,68.30
2019-06-01T09:00:03.234Z,66.66
2019-06-01T09:01:03.311Z,69.50
2019-06-01T09:02:03.193Z,69.86
2019-06-01T09:03:03.162Z,66.02
2019-06-01T09:04:03.153Z,63.19
2019-06-01T09:05:03.123Z,61.60
2019-06-01T09:06:03.114Z,58.83
2019-06-01T09:07:03.074Z,59.28
2019-06-01T09:08:03.065Z,57.97
2019-06-01T09:09:03.039Z,56.40
2019-06-01T09:10:03.021Z,59.44
2019-06-01T09:11:02.992Z,61.01
2019-06-01T09:12:02.974Z,58.89
2019-06-01T09:13:02.950Z,56.81
2019-06-01T09:14:02.962Z,60.32
2019-06-01T09:15:02.923Z,62.57
2019-06-01T09:16:02.903Z,61.05
2019-06-01T09:17:02.887Z,63.49
2019-06-01T09:18:02.909Z,65.69
2019-06-01T09:19:02.822Z,65.79
2019-06-01T09:20:02.871Z,68.99
2019-06-01T09:21:02.832Z,68.29
2019-06-01T09:22:02.775Z,65.56
2019-06-01T09:23:02.751Z,59.97
2019-06-01T09:24:02.723Z,62.31
2019-06-01T09:25:02.775Z,62.73
2019-06-01T09:26:02.777Z,61.86
2019-06-01T09:27:02.735Z,61.18
2019-06-01T09:28:02.642Z,63.16
2019-06-01T09:29:02.639Z,62.19
2019-06-01T09:30:02.601Z,63.39
2019-06-01T09:31:02.581Z,64.01
2019-06-01T09:32:02.552Z,65.92
2019-06-01T09:33:02.531Z,68.57
2019-06-01T09:34:02.516Z,70.57
2019-06-01T09:35:02.492Z,70.67
2019-06-01T09:36:02.465Z,69.19
2019-06-01T09:37:02.440Z,65.37
2019-06-01T09:38:02.438Z,65.30
2019-06-01T09:39:02.392Z,61.60
2019-06-01T09:40:02.379Z,63.03
2019-06-01T09:41:02.401Z,62.57
2019-06-01T09:42:02.340Z,61.31
2019-06-01T09:43:02.325Z,60.36
2019-06-01T09:44:02.330Z,61.60
2019-06-01T09:45:02.288Z,60.66
2019-06-01T09:46:02.266Z,62.19
2019-06-01T09:47:02.250Z,63.42
2019-06-01T09:48:02.250Z,63.78
2019-06-01T09:49:02.204Z,64.88
2019-06-01T09:50:02.183Z,64.87
2019-06-01T09:51:02.192Z,65.30
2019-06-01T09:52:02.467Z,59.33
2019-06-01T09:53:02.124Z,60.92
2019-06-01T09:54:02.092Z,64.85
2019-06-01T09:55:02.061Z,63.87
2019-06-01T09:56:02.050Z,60.89
2019-06-01T09:57:02.025Z,60.46
2019-06-01T09:58:02.055Z,60.53
2019-06-01T09:59:01.967Z,60.82
2019-06-01T10:00:02.031Z,60.11
2019-06-01T10:01:01.921Z,64.17
2019-06-01T10:02:01.908Z,70.04
2019-06-01T10:03:01.883Z,68.03
2019-06-01T10:04:01.858Z,62.41
2019-06-01T10:05:01.850Z,60.26
2019-06-01T10:06:02.484Z,61.85
2019-06-01T10:07:01.795Z,58.34
2019-06-01T10:08:01.778Z,60.75
2019-06-01T10:09:01.765Z,59.38
2019-06-01T10:10:01.737Z,59.25
2019-06-01T10:11:01.704Z,55.80
2019-06-01T10:12:01.689Z,57.50
2019-06-01T10:13:01.678Z,56.07
2019-06-01T10:14:01.661Z,60.49
2019-06-01T10:15:01.871Z,55.85
2019-06-01T10:16:01.647Z,57.26
2019-06-01T10:17:01.584Z,55.73
2019-06-01T10:18:01.568Z,57.75
2019-06-01T10:19:01.555Z,57.79
2019-06-01T10:20:01.528Z,59.98
2019-06-01T10:21:01.507Z,61.60
2019-06-01T10:22:01.478Z,60.93
2019-06-01T10:23:01.477Z,65.20
2019-06-01T10:24:01.432Z,63.78
2019-06-01T10:25:01.409Z,67.21
2019-06-01T10:26:01.386Z,67.28
2019-06-01T10:27:01.383Z,64.92
2019-06-01T10:28:01.359Z,65.30
2019-06-01T10:29:01.344Z,68.83
2019-06-01T10:30:01.383Z,66.86
2019-06-01T10:31:01.281Z,65.37
2019-06-01T10:32:01.262Z,65.14
2019-06-01T10:33:01.224Z,64.26
2019-06-01T10:34:01.288Z,69.10
2019-06-01T10:35:01.180Z,66.37
2019-06-01T10:36:16.575Z,61.90
2019-06-01T10:37:01.139Z,62.80
2019-06-01T10:38:01.112Z,61.44
2019-06-01T10:39:01.095Z,61.60
2019-06-01T10:40:01.072Z,64.98
2019-06-01T10:41:01.048Z,63.71
2019-06-01T10:42:01.024Z,61.93
2019-06-01T10:43:01.008Z,63.35
2019-06-01T10:44:00.973Z,61.73
2019-06-01T10:45:00.968Z,59.72
2019-06-01T10:46:00.939Z,60.08
2019-06-01T10:47:00.945Z,62.05
2019-06-01T10:48:00.922Z,60.49
2019-06-01T10:49:00.886Z,64.42
2019-06-01T10:50:00.849Z,62.32
2019-06-01T10:51:00.847Z,61.02
2019-06-01T10:52:00.822Z,63.45
2019-06-01T10:53:00.812Z,64.10
2019-06-01T10:54:00.766Z,64.10
2019-06-01T10:55:00.742Z,63.71
2019-06-01T10:56:00.733Z,61.96
2019-06-01T10:57:00.721Z,66.47
2019-06-01T10:58:00.701Z,62.90
2019-06-01T10:59:00.850Z,60.72
2019-06-01T11:00:00.624Z,64.00
2019-06-01T11:01:00.604Z,61.10
2019-06-01T11:02:00.580Z,57.43
2019-06-01T11:03:00.558Z,59.45
2019-06-01T11:04:00.533Z,59.87
2019-06-01T11:05:00.519Z,60.65
2019-06-01T11:06:00.491Z,62.85
2019-06-01T11:07:00.468Z,57.88
2019-06-01T11:08:00.447Z,57.40
2019-06-01T11:09:00.431Z,59.00
2019-06-01T11:10:00.406Z,59.36
2019-06-01T11:11:00.399Z,61.05
2019-06-01T11:12:00.367Z,61.71
2019-06-01T11:13:00.339Z,64.49
2019-06-01T11:14:00.320Z,66.14
2019-06-01T11:15:00.310Z,66.11
2019-06-01T11:16:00.280Z,65.72
2019-06-01T11:17:00.526Z,64.04
2019-06-01T11:18:00.258Z,64.62
2019-06-01T11:19:00.201Z,67.92
2019-06-01T11:20:00.225Z,65.89
2019-06-01T11:21:00.168Z,68.63
2019-06-01T11:22:00.163Z,69.67
2019-06-01T11:23:00.129Z,70.93
2019-06-01T11:24:00.102Z,68.70
2019-06-01T11:25:00.092Z,68.02
2019-06-01T11:26:00.055Z,68.66
2019-06-01T11:27:00.050Z,67.08
2019-06-01T11:28:00.025Z,66.99
2019-06-01T11:29:00.018Z,68.25
2019-06-01T11:29:59.973Z,65.24
2019-06-01T11:30:59.941Z,66.11
2019-06-01T11:31:59.916Z,65.17
2019-06-01T11:32:59.894Z,62.84
2019-06-01T11:33:59.867Z,63.17
2019-06-01T11:34:59.853Z,63.26
2019-06-01T11:35:59.845Z,64.40
2019-06-01T11:37:05.282Z,62.91
2019-06-01T11:37:59.773Z,62.71
2019-06-01T11:38:59.755Z,61.81
2019-06-01T11:39:59.748Z,64.65
2019-06-01T11:40:59.711Z,65.33
2019-06-01T11:41:59.695Z,68.83
2019-06-01T11:42:59.670Z,72.43
2019-06-01T11:43:59.633Z,69.97
2019-06-01T11:44:59.627Z,63.68
2019-06-01T11:45:59.598Z,62.15
2019-06-01T11:46:59.567Z,63.81
2019-06-01T11:47:59.571Z,59.16
2019-06-01T11:48:59.536Z,56.65
2019-06-01T11:49:59.511Z,61.79
2019-06-01T11:50:59.498Z,57.88
2019-06-01T11:51:59.478Z,54.93
2019-06-01T11:52:59.438Z,55.90
2019-06-01T11:54:00.223Z,58.07
2019-06-01T11:54:59.384Z,55.10
2019-06-01T11:55:59.385Z,56.47
2019-06-01T11:56:59.354Z,54.74
2019-06-01T11:57:59.381Z,55.13
2019-06-01T11:58:59.360Z,56.82
2019-06-01T11:59:59.322Z,56.92
2019-06-01T12:00:59.273Z,58.31
2019-06-01T12:01:59.240Z,55.06
2019-06-01T12:02:59.231Z,52.83
2019-06-01T12:03:59.201Z,51.53
2019-06-01T12:04:59.225Z,55.32
2019-06-01T12:05:59.156Z,59.31
2019-06-01T12:07:16.471Z,64.97
2019-06-01T12:07:59.123Z,63.34
2019-06-01T12:08:59.108Z,66.31
2019-06-01T12:09:59.111Z,63.31
2019-06-01T12:10:59.054Z,58.40
2019-06-01T12:11:59.292Z,58.89
2019-06-01T12:12:59.014Z,60.77
2019-06-01T12:13:59.008Z,55.69
2019-06-01T12:14:58.983Z,62.13
2019-06-01T12:15:58.952Z,63.21
2019-06-01T12:16:58.940Z,61.16
2019-06-01T12:17:58.931Z,58.55
2019-06-01T12:18:58.921Z,55.47
2019-06-01T12:19:58.891Z,61.88
2019-06-01T12:20:58.885Z,57.95
2019-06-01T12:21:58.857Z,59.67
2019-06-01T12:22:58.837Z,58.73
2019-06-01T12:23:58.815Z,62.76
2019-06-01T12:24:58.789Z,60.03
2019-06-01T12:25:58.766Z,56.32
2019-06-01T12:26:58.767Z,56.00
2019-06-01T12:27:58.752Z,57.88
2019-06-01T12:28:58.706Z,59.54
2019-06-01T12:29:58.695Z,56.29
2019-06-01T12:30:58.673Z,56.36
2019-06-01T12:31:58.683Z,56.36
2019-06-01T12:32:58.617Z,55.65
2019-06-01T12:33:58.601Z,55.94
2019-06-01T12:35:02.800Z,56.46
2019-06-01T12:35:58.553Z,55.36
2019-06-01T12:36:58.573Z,56.72
2019-06-01T12:38:21.859Z,55.38
2019-06-01T12:38:58.513Z,54.70
2019-06-01T12:39:58.477Z,55.80
2019-06-01T12:40:58.512Z,56.32
2019-06-01T12:41:58.449Z,54.39
2019-06-01T12:42:58.437Z,53.83
2019-06-01T12:43:59.313Z,56.35
2019-06-01T12:44:58.391Z,55.47
2019-06-01T12:46:07.358Z,56.25
2019-06-01T12:46:58.347Z,54.75
2019-06-01T12:47:58.799Z,55.29
2019-06-01T12:48:58.314Z,56.46
2019-06-01T12:49:58.371Z,55.51
2019-06-01T12:50:58.337Z,55.29
2019-06-01T12:51:58.282Z,55.60